Time;durP1;ratioP1;P1;durP2;ratioP2;P2;SDS_P1;SDS_P2;PMS_P1;PMS_P2;Temp;Humidity;BMP_temperature;BMP_pressure;BME280_temperature;BME280_humidity;BME280_pressure;Samples;Min_cycle;Max_cycle;Signal;HPM_P1;HPM_P2
2023/04/04 00:02:04;;;;;;;2.50;1.40;;;;;;;;;;10423248;28;20705;-78
2023/04/04 00:07:06;;;;;;;2.93;1.20;;;;;;;;;;10413430;28;20137;-77
2023/04/04 00:12:11;;;;;;;1.77;1.40;;;;;;;;;;10417688;28;20052;-78
2023/04/04 00:17:16;;;;;;;1.40;0.90;;;;;;;;;;10419050;28;20395;-77
2023/04/04 00:22:18;;;;;;;3.00;1.67;;;;;;;;;;10418401;28;20036;-78
2023/04/04 00:27:25;;;;;;;5.67;1.63;;;;;;;;;;10416161;28;20131;-79
2023/04/04 00:32:28;;;;;;;6.77;1.93;;;;;;;;;;10417957;28;20042;-79
2023/04/04 00:37:31;;;;;;;5.90;1.50;;;;;;;;;;10419030;28;20277;-80
2023/04/04 00:42:36;;;;;;;3.67;1.63;;;;;;;;;;10413503;28;20057;-80
2023/04/04 00:47:39;;;;;;;1.30;0.97;;;;;;;;;;10412113;28;20248;-81
2023/04/04 00:52:43;;;;;;;2.10;1.30;;;;;;;;;;10419335;28;20441;-80
2023/04/04 00:57:47;;;;;;;3.53;1.80;;;;;;;;;;10422749;28;20113;-80
2023/04/04 01:02:50;;;;;;;2.73;1.57;;;;;;;;;;10423460;28;20053;-82
2023/04/04 01:07:53;;;;;;;5.07;1.57;;;;;;;;;;10408399;28;20132;-76
2023/04/04 01:12:57;;;;;;;4.97;1.60;;;;;;;;;;10423417;28;20041;-77
2023/04/04 01:18:07;;;;;;;1.50;1.20;;;;;;;;;;10413597;28;20045;-77
2023/04/04 01:23:11;;;;;;;3.30;1.50;;;;;;;;;;10426861;28;20068;-77
2023/04/04 01:28:16;;;;;;;7.10;1.92;;;;;;;;;;10425124;28;20402;-76
2023/04/04 01:33:28;;;;;;;2.33;1.10;;;;;;;;;;10420843;28;20064;-77
2023/04/04 01:38:35;;;;;;;2.07;1.00;;;;;;;;;;10428401;28;20049;-79
2023/04/04 01:43:40;;;;;;;1.73;1.20;;;;;;;;;;10427967;28;20041;-75
2023/04/04 01:48:51;;;;;;;5.07;1.50;;;;;;;;;;10420158;28;20041;-78
2023/04/04 01:53:54;;;;;;;2.40;1.30;;;;;;;;;;10426080;28;20044;-77
2023/04/04 01:58:58;;;;;;;4.10;1.70;;;;;;;;;;10422988;28;20040;-79
2023/04/04 02:04:01;;;;;;;3.47;1.53;;;;;;;;;;10423885;28;20034;-78
2023/04/04 02:09:05;;;;;;;2.72;1.48;;;;;;;;;;10404780;28;20038;-77
2023/04/04 02:14:09;;;;;;;1.77;1.33;;;;;;;;;;10416871;28;20060;-78
2023/04/04 02:19:23;;;;;;;2.70;1.40;;;;;;;;;;10424158;28;20037;-77
2023/04/04 02:24:26;;;;;;;5.73;2.03;;;;;;;;;;10423621;28;20033;-78
2023/04/04 02:29:31;;;;;;;1.93;0.93;;;;;;;;;;10423226;28;20122;-78
2023/04/04 02:34:34;;;;;;;4.93;1.53;;;;;;;;;;10421667;28;20175;-77
2023/04/04 02:39:39;;;;;;;1.90;0.90;;;;;;;;;;10412388;28;20038;-78
2023/04/04 02:44:44;;;;;;;1.63;1.27;;;;;;;;;;10417567;28;20040;-78
2023/04/04 02:49:47;;;;;;;3.30;1.10;;;;;;;;;;10417659;28;20060;-78
2023/04/04 02:54:51;;;;;;;1.95;1.00;;;;;;;;;;10424885;28;20529;-80
2023/04/04 02:59:55;;;;;;;4.77;1.80;;;;;;;;;;10406743;28;20383;-80
2023/04/04 03:04:58;;;;;;;4.35;1.58;;;;;;;;;;10402039;28;20046;-78
2023/04/04 03:10:01;;;;;;;8.60;1.40;;;;;;;;;;10420028;28;20495;-78
2023/04/04 03:15:06;;;;;;;2.10;0.93;;;;;;;;;;10421163;28;20057;-78
2023/04/04 03:20:09;;;;;;;1.43;1.03;;;;;;;;;;10416439;28;20095;-78
2023/04/04 03:25:12;;;;;;;0.50;0.40;;;;;;;;;;10418097;28;20101;-77
2023/04/04 03:30:17;;;;;;;3.87;1.97;;;;;;;;;;10423472;28;20119;-78
2023/04/04 03:35:20;;;;;;;1.87;1.00;;;;;;;;;;10418294;28;20041;-78
2023/04/04 03:40:31;;;;;;;2.53;1.23;;;;;;;;;;10414579;28;20033;-78
2023/04/04 03:45:35;;;;;;;1.17;1.07;;;;;;;;;;10412817;28;20037;-77
2023/04/04 03:50:39;;;;;;;2.43;1.60;;;;;;;;;;10420652;28;20041;-79
2023/04/04 03:55:43;;;;;;;2.80;1.98;;;;;;;;;;10413468;28;20053;-78
2023/04/04 04:00:47;;;;;;;1.33;0.87;;;;;;;;;;10416073;28;20086;-78
2023/04/04 04:05:52;;;;;;;2.90;1.17;;;;;;;;;;10386961;28;20128;-79
2023/04/04 04:10:55;;;;;;;2.83;1.02;;;;;;;;;;10412301;28;20571;-77
2023/04/04 04:16:00;;;;;;;5.97;2.30;;;;;;;;;;10412761;28;20073;-77
2023/04/04 04:21:03;;;;;;;4.03;1.63;;;;;;;;;;10420794;28;20621;-79
2023/04/04 04:26:06;;;;;;;3.58;1.92;;;;;;;;;;10415488;28;20045;-77
2023/04/04 04:31:11;;;;;;;5.23;1.27;;;;;;;;;;10418351;28;20037;-80
2023/04/04 04:36:14;;;;;;;4.43;1.63;;;;;;;;;;10421611;28;20049;-79
2023/04/04 04:41:17;;;;;;;1.80;1.10;;;;;;;;;;10418828;28;20148;-78
2023/04/04 04:46:21;;;;;;;1.50;0.97;;;;;;;;;;10418253;28;20060;-77
2023/04/04 04:51:25;;;;;;;3.60;1.57;;;;;;;;;;10421950;28;20045;-78
2023/04/04 04:56:28;;;;;;;4.38;1.80;;;;;;;;;;10419504;28;20083;-76
2023/04/04 05:01:32;;;;;;;3.20;0.90;;;;;;;;;;10409676;28;20045;-76
2023/04/04 05:06:36;;;;;;;0.97;0.50;;;;;;;;;;10419047;28;20131;-77
2023/04/04 05:11:40;;;;;;;1.75;0.95;;;;;;;;;;10416759;28;20075;-76
2023/04/04 05:16:44;;;;;;;2.50;1.40;;;;;;;;;;10424812;28;20119;-78
2023/04/04 05:21:50;;;;;;;6.13;2.07;;;;;;;;;;10411008;28;20045;-78
2023/04/04 05:26:52;;;;;;;1.73;1.30;;;;;;;;;;10419443;28;20033;-76
2023/04/04 05:31:56;;;;;;;4.90;1.77;;;;;;;;;;10426410;28;20075;-77
2023/04/04 05:36:59;;;;;;;1.70;0.90;;;;;;;;;;10425560;28;20077;-76
2023/04/04 05:42:02;;;;;;;3.27;1.33;;;;;;;;;;10401582;28;20045;-76
2023/04/04 05:47:06;;;;;;;1.57;0.80;;;;;;;;;;10415969;28;20069;-76
2023/04/04 05:52:11;;;;;;;4.00;1.25;;;;;;;;;;10420659;28;20052;-76
2023/04/04 05:57:21;;;;;;;4.13;1.17;;;;;;;;;;10419619;28;20056;-75
2023/04/04 06:02:28;;;;;;;0.63;0.63;;;;;;;;;;10418161;28;20087;-75
2023/04/04 06:07:31;;;;;;;6.87;2.70;;;;;;;;;;10424286;28;20045;-76
2023/04/04 06:12:34;;;;;;;2.43;1.67;;;;;;;;;;10415814;28;20033;-78
2023/04/04 06:17:39;;;;;;;1.47;1.07;;;;;;;;;;10413302;28;20037;-77
2023/04/04 06:22:43;;;;;;;1.77;1.33;;;;;;;;;;10421348;28;20037;-77
2023/04/04 06:27:46;;;;;;;4.23;1.50;;;;;;;;;;10416267;28;20044;-78
2023/04/04 06:32:51;;;;;;;6.18;1.33;;;;;;;;;;10420471;28;20044;-77
2023/04/04 06:37:55;;;;;;;1.67;1.27;;;;;;;;;;10410401;28;20390;-76
2023/04/04 06:42:58;;;;;;;2.70;1.50;;;;;;;;;;10411954;28;20033;-77
2023/04/04 06:48:02;;;;;;;3.50;1.90;;;;;;;;;;10412904;28;20045;-77
2023/04/04 06:53:06;;;;;;;1.23;0.93;;;;;;;;;;10407933;28;20033;-77
2023/04/04 06:58:09;;;;;;;2.60;1.20;;;;;;;;;;10388009;28;20475;-77
2023/04/04 07:03:13;;;;;;;3.88;1.92;;;;;;;;;;10395807;28;20072;-77
2023/04/04 07:08:16;;;;;;;4.47;2.88;;;;;;;;;;10404717;28;20435;-78
2023/04/04 07:13:19;;;;;;;5.90;2.80;;;;;;;;;;10400702;28;20052;-77
2023/04/04 07:18:23;;;;;;;5.15;3.15;;;;;;;;;;10403718;28;20046;-78
2023/04/04 07:23:36;;;;;;;5.38;2.92;;;;;;;;;;10405712;28;20049;-79
2023/04/04 07:28:38;;;;;;;6.75;3.38;;;;;;;;;;10411697;28;20112;-78
2023/04/04 07:33:44;;;;;;;6.32;3.13;;;;;;;;;;10409451;28;20435;-77
2023/04/04 07:38:47;;;;;;;6.07;3.40;;;;;;;;;;10407286;28;20033;-78
2023/04/04 07:43:51;;;;;;;6.00;4.00;;;;;;;;;;10407282;28;20811;-78
2023/04/04 07:48:55;;;;;;;5.25;2.83;;;;;;;;;;10402064;28;20147;-78
2023/04/04 07:53:58;;;;;;;5.38;3.40;;;;;;;;;;10404724;28;20041;-78
2023/04/04 07:59:01;;;;;;;6.43;3.10;;;;;;;;;;10397274;28;20042;-78
2023/04/04 08:04:06;;;;;;;4.30;3.40;;;;;;;;;;10402641;28;20129;-78
2023/04/04 08:09:08;;;;;;;7.25;3.90;;;;;;;;;;10398075;28;20307;-78
2023/04/04 08:14:12;;;;;;;4.30;2.78;;;;;;;;;;10403438;28;20033;-77
2023/04/04 08:19:26;;;;;;;5.68;3.45;;;;;;;;;;10398001;28;20067;-78
2023/04/04 08:24:29;;;;;;;4.95;3.28;;;;;;;;;;10405111;28;20048;-80
2023/04/04 08:29:33;;;;;;;;;;;;;;;;;;10371394;28;20087;-76
2023/04/04 08:34:36;;;;;;;;;;;;;;;;;;10405232;28;19936;-79
2023/04/04 08:39:38;;;;;;;;;;;;;;;;;;10378818;28;20016;-78
2023/04/04 08:44:44;;;;;;;;;;;;;;;;;;10399451;28;19929;-78
2023/04/04 08:49:47;;;;;;;;;;;;;;;;;;10396620;28;20243;-78
2023/04/04 08:54:49;;;;;;;;;;;;;;;;;;10399916;28;19920;-79
2023/04/04 08:59:54;;;;;;;6.47;2.83;;;;;;;;;;10395467;28;19925;-79
2023/04/04 09:04:57;;;;;;;;;;;;;;;;;;10397465;28;20041;-78
2023/04/04 09:10:10;;;;;;;;;;;;;;;;;;10398101;28;19927;-79
2023/04/04 09:15:15;;;;;;;7.68;3.40;;;;;;;;;;10406732;28;19921;-79
2023/04/04 09:20:38;;;;;;;7.20;3.58;;;;;;;;;;10401834;28;20030;-79
2023/04/04 09:25:46;;;;;;;3.77;2.33;;;;;;;;;;10408423;28;20049;-78
2023/04/04 09:31:08;;;;;;;3.73;2.23;;;;;;;;;;10405108;28;20069;-79
2023/04/04 09:36:13;;;;;;;5.72;2.08;;;;;;;;;;10408477;28;20798;-80
2023/04/04 09:41:18;;;;;;;6.13;3.47;;;;;;;;;;10402782;28;20419;-78
2023/04/04 09:46:24;;;;;;;6.57;3.15;;;;;;;;;;10407464;28;20487;-79
2023/04/04 09:51:33;;;;;;;7.05;2.60;;;;;;;;;;10408668;28;20040;-80
2023/04/04 09:56:37;;;;;;;4.80;2.78;;;;;;;;;;10394014;28;20049;-78
2023/04/04 10:01:42;;;;;;;4.40;2.35;;;;;;;;;;10412304;28;20116;-78
2023/04/04 10:06:46;;;;;;;5.72;2.78;;;;;;;;;;10412962;28;20056;-79
2023/04/04 10:11:50;;;;;;;6.28;3.15;;;;;;;;;;10413631;28;20104;-78
2023/04/04 10:16:56;;;;;;;4.80;2.90;;;;;;;;;;10410192;28;20192;-78
2023/04/04 10:22:00;;;;;;;6.13;3.40;;;;;;;;;;10408360;28;20176;-78
2023/04/04 10:27:03;;;;;;;;;;;;;;;;;;10409282;28;20053;-78
2023/04/04 10:32:08;;;;;;;;;;;;;;;;;;10379571;28;19947;-77
2023/04/04 10:37:15;;;;;;;5.22;2.80;;;;;;;;;;10408339;28;19921;-79
2023/04/04 10:42:18;;;;;;;;;;;;;;;;;;10409895;28;20385;-77
2023/04/04 10:47:22;;;;;;;6.55;3.67;;;;;;;;;;10407245;28;19929;-78
2023/04/04 10:52:26;;;;;;;;;;;;;;;;;;10411727;28;20033;-78
2023/04/04 10:57:29;;;;;;;;;;;;;;;;;;10406502;28;19929;-79
2023/04/04 11:02:32;;;;;;;;;;;;;;;;;;10405328;28;20037;-79
2023/04/04 11:07:39;;;;;;;5.72;3.83;;;;;;;;;;10405131;28;20307;-78
2023/04/04 11:12:53;;;;;;;6.93;3.90;;;;;;;;;;10387631;28;20049;-78
2023/04/04 11:18:14;;;;;;;;;;;;;;;;;;10400816;28;20656;-78
2023/04/04 11:23:59;;;;;;;6.68;3.92;;;;;;;;;;10406091;28;19937;-79
2023/04/04 11:29:02;;;;;;;;;;;;;;;;;;10406756;28;20057;-78
2023/04/04 11:34:06;;;;;;;;;;;;;;;;;;10406594;28;19936;-79
2023/04/04 11:39:14;;;;;;;6.95;3.50;;;;;;;;;;10406532;28;20012;-79
2023/04/04 11:44:19;;;;;;;5.53;3.70;;;;;;;;;;10383256;28;20480;-79
2023/04/04 11:49:22;;;;;;;;;;;;;;;;;;10386269;28;20560;-79
2023/04/04 11:54:26;;;;;;;;;;;;;;;;;;10403013;28;19925;-79
2023/04/04 11:59:29;;;;;;;;;;;;;;;;;;10387280;28;20538;-79
2023/04/04 12:04:33;;;;;;;6.45;3.55;;;;;;;;;;10406234;28;20409;-78
2023/04/04 12:09:49;;;;;;;4.38;3.40;;;;;;;;;;10403167;28;20414;-80
2023/04/04 12:14:53;;;;;;;7.07;3.70;;;;;;;;;;10404404;28;20041;-80
2023/04/04 12:20:09;;;;;;;;;;;;;;;;;;10403806;28;20041;-79
2023/04/04 12:25:12;;;;;;;;;;;;;;;;;;10403955;28;19929;-79
2023/04/04 12:30:15;;;;;;;;;;;;;;;;;;10390110;28;20218;-79
2023/04/04 12:35:17;;;;;;;;;;;;;;;;;;10398037;28;20227;-79
2023/04/04 12:40:20;;;;;;;;;;;;;;;;;;10403217;28;19964;-78
2023/04/04 12:45:23;;;;;;;;;;;;;;;;;;10412202;28;20022;-78
2023/04/04 12:50:35;;;;;;;;;;;;;;;;;;10410410;28;19936;-77
2023/04/04 12:55:50;;;;;;;5.28;3.28;;;;;;;;;;10413505;28;19920;-78
2023/04/04 13:00:54;;;;;;;6.90;4.32;;;;;;;;;;10405801;28;20421;-79
2023/04/04 13:05:58;;;;;;;9.48;5.05;;;;;;;;;;10405633;28;20428;-79
2023/04/04 13:11:04;;;;;;;6.38;3.80;;;;;;;;;;10410811;28;20441;-79
2023/04/04 13:16:08;;;;;;;5.22;3.20;;;;;;;;;;10403689;28;20426;-79
2023/04/04 13:21:11;;;;;;;5.40;4.07;;;;;;;;;;10403847;28;20453;-79
2023/04/04 13:26:16;;;;;;;5.80;3.70;;;;;;;;;;10384796;28;20435;-79
2023/04/04 13:31:20;;;;;;;5.60;3.78;;;;;;;;;;10383753;28;21071;-79
2023/04/04 13:36:23;;;;;;;7.22;4.47;;;;;;;;;;10408743;28;20426;-78
2023/04/04 13:41:28;;;;;;;5.13;3.70;;;;;;;;;;10401683;28;20430;-78
2023/04/04 13:46:30;;;;;;;6.55;3.80;;;;;;;;;;10400160;28;20463;-79
2023/04/04 13:51:33;;;;;;;6.53;3.97;;;;;;;;;;10397992;28;20435;-79
2023/04/04 13:56:37;;;;;;;4.70;3.70;;;;;;;;;;10406232;28;20442;-79
2023/04/04 14:01:40;;;;;;;6.28;3.88;;;;;;;;;;10403187;28;20877;-79
2023/04/04 14:06:43;;;;;;;5.38;3.63;;;;;;;;;;10400243;28;20547;-79
2023/04/04 14:11:48;;;;;;;7.00;3.78;;;;;;;;;;10398826;28;20472;-80
2023/04/04 14:16:51;;;;;;;8.23;4.55;;;;;;;;;;10404439;28;20043;-79
2023/04/04 14:21:54;;;;;;;5.50;3.38;;;;;;;;;;10401942;28;20099;-79
2023/04/04 14:26:57;;;;;;;;;;;;;;;;;;10402546;28;20068;-79
2023/04/04 14:32:01;;;;;;;6.25;3.70;;;;;;;;;;10404935;28;19962;-78
2023/04/04 14:37:06;;;;;;;6.88;3.53;;;;;;;;;;10407001;28;20128;-80
2023/04/04 14:42:08;;;;;;;5.13;3.17;;;;;;;;;;10402192;28;20049;-79
2023/04/04 14:47:13;;;;;;;5.43;2.97;;;;;;;;;;10411834;28;20038;-79
2023/04/04 14:52:16;;;;;;;6.55;2.97;;;;;;;;;;10403996;28;20039;-78
2023/04/04 14:57:19;;;;;;;6.40;3.45;;;;;;;;;;10391626;28;20037;-78
2023/04/04 15:02:24;;;;;;;3.95;2.42;;;;;;;;;;10394808;28;20067;-77
2023/04/04 15:07:27;;;;;;;5.22;2.70;;;;;;;;;;10394012;28;20422;-78
2023/04/04 15:12:30;;;;;;;5.00;3.00;;;;;;;;;;10392344;28;20049;-80
2023/04/04 15:17:35;;;;;;;3.92;2.15;;;;;;;;;;10397286;28;20119;-78
2023/04/04 15:22:40;;;;;;;7.45;3.30;;;;;;;;;;10396040;28;20051;-78
2023/04/04 15:27:43;;;;;;;5.53;3.33;;;;;;;;;;10399041;28;20033;-78
2023/04/04 15:32:47;;;;;;;4.97;3.22;;;;;;;;;;10402230;28;20052;-79
2023/04/04 15:37:50;;;;;;;;;;;;;;;;;;10396362;28;20135;-79
2023/04/04 15:42:55;;;;;;;4.90;2.22;;;;;;;;;;10392533;28;19921;-78
2023/04/04 15:48:00;;;;;;;4.15;2.88;;;;;;;;;;10397412;28;20063;-78
2023/04/04 15:53:04;;;;;;;;;;;;;;;;;;10393480;28;20046;-79
2023/04/04 15:58:07;;;;;;;6.63;3.22;;;;;;;;;;10388649;28;19929;-79
2023/04/04 16:03:14;;;;;;;6.78;3.15;;;;;;;;;;10399367;28;20038;-79
2023/04/04 16:08:20;;;;;;;5.53;3.20;;;;;;;;;;10379557;28;20048;-78
2023/04/04 16:13:33;;;;;;;9.38;2.80;;;;;;;;;;10397729;28;20045;-79
2023/04/04 16:18:37;;;;;;;7.47;3.25;;;;;;;;;;10398943;28;20046;-78
2023/04/04 16:23:39;;;;;;;6.30;3.17;;;;;;;;;;10399652;28;20127;-79
2023/04/04 16:28:43;;;;;;;6.40;2.87;;;;;;;;;;10397944;28;20095;-80
2023/04/04 16:33:49;;;;;;;6.43;3.40;;;;;;;;;;10400198;28;20320;-79
2023/04/04 16:38:53;;;;;;;8.43;3.25;;;;;;;;;;10398662;28;20045;-79
2023/04/04 16:43:58;;;;;;;6.20;3.13;;;;;;;;;;10401889;28;20034;-79
2023/04/04 16:49:00;;;;;;;;;;;;;;;;;;10406222;28;20049;-79
2023/04/04 16:54:05;;;;;;;5.63;2.83;;;;;;;;;;10390925;28;19925;-80
2023/04/04 16:59:08;;;;;;;4.65;2.78;;;;;;;;;;10410308;28;20045;-79
2023/04/04 17:04:12;;;;;;;8.32;3.13;;;;;;;;;;10408894;28;20056;-80
2023/04/04 17:09:16;;;;;;;5.60;2.88;;;;;;;;;;10406625;28;20087;-80
2023/04/04 17:14:19;;;;;;;8.15;3.30;;;;;;;;;;10412791;28;20052;-81
2023/04/04 17:19:22;;;;;;;6.53;3.13;;;;;;;;;;10416154;28;20048;-80
2023/04/04 17:24:27;;;;;;;6.28;3.65;;;;;;;;;;10411265;28;20037;-79
2023/04/04 17:29:31;;;;;;;7.47;3.53;;;;;;;;;;10406886;28;20056;-79
2023/04/04 17:34:44;;;;;;;7.43;2.65;;;;;;;;;;10419725;28;20061;-78
2023/04/04 17:39:48;;;;;;;11.00;2.63;;;;;;;;;;10417221;28;20056;-79
2023/04/04 17:45:01;;;;;;;7.30;3.00;;;;;;;;;;10402461;28;20041;-78
2023/04/04 17:50:04;;;;;;;5.68;2.75;;;;;;;;;;10408211;28;20129;-79
2023/04/04 17:55:08;;;;;;;5.13;3.00;;;;;;;;;;10420309;28;20052;-79
2023/04/04 18:00:12;;;;;;;4.35;2.53;;;;;;;;;;10416125;28;20128;-77
2023/04/04 18:05:25;;;;;;;6.43;3.17;;;;;;;;;;10409770;28;20057;-78
2023/04/04 18:10:31;;;;;;;5.97;2.35;;;;;;;;;;10419202;28;20429;-77
2023/04/04 18:15:35;;;;;;;6.68;3.03;;;;;;;;;;10412419;28;20044;-78
2023/04/04 18:20:38;;;;;;;7.70;3.45;;;;;;;;;;10413501;28;20053;-80
2023/04/04 18:25:42;;;;;;;8.88;3.38;;;;;;;;;;10421187;28;20048;-78
2023/04/04 18:30:46;;;;;;;7.63;3.20;;;;;;;;;;10418917;28;20087;-80
2023/04/04 18:35:49;;;;;;;12.57;3.20;;;;;;;;;;10413984;28;20029;-78
2023/04/04 18:40:55;;;;;;;9.75;3.45;;;;;;;;;;10415471;28;20056;-78
2023/04/04 18:46:00;;;;;;;3.43;2.50;;;;;;;;;;10413054;28;20037;-77
2023/04/04 18:51:07;;;;;;;5.17;2.40;;;;;;;;;;10413292;28;20131;-78
2023/04/04 18:56:12;;;;;;;12.75;3.80;;;;;;;;;;10411881;28;20053;-77
2023/04/04 19:01:15;;;;;;;11.20;4.20;;;;;;;;;;10413664;28;20052;-78
2023/04/04 19:06:18;;;;;;;23.97;7.00;;;;;;;;;;10416743;28;20041;-78
2023/04/04 19:11:22;;;;;;;6.53;3.50;;;;;;;;;;10408359;28;20045;-78
2023/04/04 19:16:25;;;;;;;14.50;5.03;;;;;;;;;;10410373;28;20056;-77
2023/04/04 19:21:28;;;;;;;8.10;4.10;;;;;;;;;;10415763;28;20503;-78
2023/04/04 19:26:32;;;;;;;8.20;3.90;;;;;;;;;;10413881;28;20040;-79
2023/04/04 19:31:35;;;;;;;10.40;3.50;;;;;;;;;;10413466;28;20055;-78
2023/04/04 19:36:37;;;;;;;10.87;4.47;;;;;;;;;;10415142;28;20041;-78
2023/04/04 19:41:42;;;;;;;9.03;3.43;;;;;;;;;;10415818;28;20045;-78
2023/04/04 19:46:45;;;;;;;7.78;3.28;;;;;;;;;;10415212;28;20406;-78
2023/04/04 19:51:49;;;;;;;8.20;3.50;;;;;;;;;;10414695;28;20417;-78
2023/04/04 19:56:58;;;;;;;10.45;4.82;;;;;;;;;;10414648;28;20029;-79
2023/04/04 20:02:00;;;;;;;14.87;5.60;;;;;;;;;;10416850;28;20505;-80
2023/04/04 20:07:03;;;;;;;12.10;4.97;;;;;;;;;;10397438;28;20068;-78
2023/04/04 20:12:09;;;;;;;10.27;4.13;;;;;;;;;;10414319;28;20530;-78
2023/04/04 20:17:11;;;;;;;12.10;3.87;;;;;;;;;;10413703;28;20096;-78
2023/04/04 20:22:15;;;;;;;5.32;3.22;;;;;;;;;;10417113;28;20100;-78
2023/04/04 20:27:23;;;;;;;8.18;3.80;;;;;;;;;;10410541;28;20538;-76
2023/04/04 20:32:26;;;;;;;11.03;4.50;;;;;;;;;;10414644;28;20037;-78
2023/04/04 20:37:30;;;;;;;16.53;6.43;;;;;;;;;;10411738;28;20050;-78
2023/04/04 20:42:38;;;;;;;16.87;5.37;;;;;;;;;;10406812;28;20033;-79
2023/04/04 20:47:43;;;;;;;41.50;11.40;;;;;;;;;;10409689;28;20566;-77
2023/04/04 20:52:48;;;;;;;20.73;6.10;;;;;;;;;;10412761;28;20056;-81
2023/04/04 20:57:53;;;;;;;8.37;3.60;;;;;;;;;;10411192;28;20069;-79
2023/04/04 21:02:58;;;;;;;8.43;4.23;;;;;;;;;;10408428;28;20436;-78
2023/04/04 21:08:01;;;;;;;7.75;3.83;;;;;;;;;;10389798;28;20154;-78
2023/04/04 21:13:05;;;;;;;10.23;4.03;;;;;;;;;;10413841;28;20045;-77
2023/04/04 21:18:08;;;;;;;11.48;4.00;;;;;;;;;;10419533;28;20053;-78
2023/04/04 21:23:26;;;;;;;12.83;4.70;;;;;;;;;;10419086;28;20041;-80
2023/04/04 21:28:32;;;;;;;10.67;3.93;;;;;;;;;;10415260;28;20406;-81
2023/04/04 21:33:36;;;;;;;7.87;3.30;;;;;;;;;;10412368;28;20033;-80
2023/04/04 21:38:40;;;;;;;7.17;3.47;;;;;;;;;;10411992;28;20045;-81
2023/04/04 21:43:44;;;;;;;12.20;4.00;;;;;;;;;;10410221;28;20045;-80
2023/04/04 21:48:47;;;;;;;10.07;3.58;;;;;;;;;;10411854;28;20041;-79
2023/04/04 21:53:50;;;;;;;5.73;3.50;;;;;;;;;;10410964;28;20045;-78
2023/04/04 21:58:58;;;;;;;11.67;3.20;;;;;;;;;;10414957;28;20043;-78
2023/04/04 22:04:11;;;;;;;6.68;3.15;;;;;;;;;;10418023;28;20032;-79
2023/04/04 22:09:15;;;;;;;5.63;3.30;;;;;;;;;;10397912;28;20045;-78
2023/04/04 22:14:19;;;;;;;8.87;3.80;;;;;;;;;;10414637;28;20035;-78
2023/04/04 22:19:23;;;;;;;9.67;4.03;;;;;;;;;;10417457;28;20358;-79
2023/04/04 22:24:27;;;;;;;7.17;3.60;;;;;;;;;;10414553;28;20130;-79
2023/04/04 22:29:31;;;;;;;8.53;3.70;;;;;;;;;;10420157;28;20033;-79
2023/04/04 22:34:36;;;;;;;7.97;3.87;;;;;;;;;;10398892;28;20029;-79
2023/04/04 22:39:41;;;;;;;10.13;4.20;;;;;;;;;;10417461;28;20141;-79
2023/04/04 22:44:46;;;;;;;10.70;4.23;;;;;;;;;;10415542;28;20036;-79
2023/04/04 22:49:48;;;;;;;;;;;;;;;;;;10409215;28;20041;-80
2023/04/04 22:54:51;;;;;;;5.00;3.00;;;;;;;;;;10419058;28;19935;-79
2023/04/04 23:00:04;;;;;;;7.27;3.50;;;;;;;;;;10410967;28;20045;-80
2023/04/04 23:05:10;;;;;;;7.30;3.20;;;;;;;;;;10430964;28;20550;-79
2023/04/04 23:10:13;;;;;;;7.82;3.47;;;;;;;;;;10408992;28;20543;-80
2023/04/04 23:15:19;;;;;;;11.87;4.27;;;;;;;;;;10418406;28;20040;-79
2023/04/04 23:20:23;;;;;;;9.60;4.33;;;;;;;;;;10416614;28;20045;-80
2023/04/04 23:25:26;;;;;;;;;;;;;;;;;;10414450;28;20140;-78
2023/04/04 23:30:31;;;;;;;12.67;4.67;;;;;;;;;;10408131;28;20059;-78
2023/04/04 23:35:35;;;;;;;10.37;4.40;;;;;;;;;;10412243;28;20462;-77
2023/04/04 23:40:37;;;;;;;12.83;4.10;;;;;;;;;;10420598;28;20140;-80
2023/04/04 23:45:42;;;;;;;9.50;4.53;;;;;;;;;;10415244;28;20049;-78
2023/04/04 23:50:44;;;;;;;9.63;3.95;;;;;;;;;;10412781;28;20041;-78
2023/04/04 23:55:47;;;;;;;10.87;4.97;;;;;;;;;;10414033;28;20037;-80
